DLA1UV EDDF-LIRP
Flight info
| Callsign | DLA1UV |
|---|---|
| Flight time | 1h 17m |
| Altitude | 33000 |
| Route | ANEKI3D ANEKI Y163 NATOR DCT TRA DCT RIPUS DCT GERSA DCT SOSON DCT ODINA DCT SRN DCT ROBAS DCT OSBUL DCT EKPAL DCT MIVKI |
| Aircraft | E190/M-SDE3GILORVW/S |
Departure
| Time | 2026-05-08 10:30 |
|---|---|
| Airport | Frankfurt Main Airport (EDDF) |
Arrival
| Time | 2026-05-08 11:47 |
|---|---|
| Airport | Pisa International Airport (LIRP) |
| Time | Latitude | Longitude | Altitude | Speed | Heading |
|---|---|---|---|---|---|
| 2026-05-08 10:00 | 50.04919 | 8.59186 | 364 ft | 0 kts | 340° |
| 2026-05-08 10:16 | 50.04901 | 8.59197 | 368 ft | 4 kts | 340° |
| 2026-05-08 10:16 | 50.04876 | 8.59211 | 366 ft | 4 kts | 340° |
| 2026-05-08 10:16 | 50.04850 | 8.59226 | 368 ft | 4 kts | 340° |
| 2026-05-08 10:16 | 50.04843 | 8.59230 | 367 ft | 3 kts | 340° |
| 2026-05-08 10:19 | 50.04856 | 8.59215 | 369 ft | 4 kts | 314° |
| 2026-05-08 10:19 | 50.04852 | 8.59161 | 366 ft | 6 kts | 230° |
| 2026-05-08 10:19 | 50.04818 | 8.59130 | 370 ft | 5 kts | 221° |
| 2026-05-08 10:20 | 50.04780 | 8.58996 | 368 ft | 9 kts | 248° |
| 2026-05-08 10:20 | 50.04757 | 8.58899 | 371 ft | 11 kts | 251° |
| 2026-05-08 10:20 | 50.04748 | 8.58783 | 369 ft | 12 kts | 301° |
| 2026-05-08 10:20 | 50.04836 | 8.58715 | 362 ft | 17 kts | 338° |
| 2026-05-08 10:21 | 50.04925 | 8.58624 | 358 ft | 16 kts | 298° |
| 2026-05-08 10:21 | 50.04899 | 8.58453 | 364 ft | 17 kts | 250° |
| 2026-05-08 10:21 | 50.04856 | 8.58268 | 362 ft | 19 kts | 249° |
| 2026-05-08 10:21 | 50.04808 | 8.58066 | 358 ft | 21 kts | 251° |
| 2026-05-08 10:22 | 50.04729 | 8.57922 | 364 ft | 17 kts | 221° |
| 2026-05-08 10:22 | 50.04674 | 8.57756 | 358 ft | 18 kts | 250° |
| 2026-05-08 10:22 | 50.04626 | 8.57564 | 359 ft | 20 kts | 248° |
| 2026-05-08 10:22 | 50.04575 | 8.57357 | 357 ft | 21 kts | 251° |
| 2026-05-08 10:23 | 50.04525 | 8.57132 | 362 ft | 23 kts | 250° |
| 2026-05-08 10:23 | 50.04468 | 8.56899 | 362 ft | 23 kts | 249° |
| 2026-05-08 10:23 | 50.04411 | 8.56660 | 363 ft | 25 kts | 250° |
| 2026-05-08 10:23 | 50.04349 | 8.56400 | 359 ft | 26 kts | 249° |
| 2026-05-08 10:24 | 50.04283 | 8.56125 | 358 ft | 28 kts | 250° |
| 2026-05-08 10:24 | 50.04216 | 8.55834 | 353 ft | 29 kts | 250° |
| 2026-05-08 10:24 | 50.04150 | 8.55562 | 356 ft | 18 kts | 249° |
| 2026-05-08 10:24 | 50.04108 | 8.55388 | 357 ft | 18 kts | 251° |
| 2026-05-08 10:25 | 50.04065 | 8.55205 | 355 ft | 18 kts | 249° |
| 2026-05-08 10:25 | 50.04028 | 8.55052 | 354 ft | 11 kts | 249° |
| 2026-05-08 10:25 | 50.03979 | 8.54968 | 353 ft | 12 kts | 185° |
| 2026-05-08 10:25 | 50.03888 | 8.55019 | 354 ft | 16 kts | 163° |
| 2026-05-08 10:26 | 50.03810 | 8.54948 | 349 ft | 16 kts | 251° |
| 2026-05-08 10:26 | 50.03772 | 8.54791 | 349 ft | 12 kts | 250° |
| 2026-05-08 10:26 | 50.03707 | 8.54705 | 349 ft | 14 kts | 187° |
| 2026-05-08 10:26 | 50.03672 | 8.54719 | 345 ft | 0 kts | 157° |
| 2026-05-08 10:27 | 50.03665 | 8.54723 | 349 ft | 3 kts | 157° |
| 2026-05-08 10:28 | 50.03627 | 8.54748 | 348 ft | 7 kts | 157° |
| 2026-05-08 10:28 | 50.03581 | 8.54795 | 346 ft | 8 kts | 115° |
| 2026-05-08 10:28 | 50.03597 | 8.54878 | 348 ft | 0 kts | 66° |
| 2026-05-08 10:29 | 50.03606 | 8.54909 | 348 ft | 8 kts | 66° |
| 2026-05-08 10:29 | 50.03699 | 8.55290 | 351 ft | 74 kts | 69° |
| 2026-05-08 10:29 | 50.03960 | 8.56376 | 360 ft | 138 kts | 69° |
| 2026-05-08 10:29 | 50.04322 | 8.57843 | 884 ft | 154 kts | 70° |
| 2026-05-08 10:30 | 50.04685 | 8.59490 | 1616 ft | 167 kts | 69° |
| 2026-05-08 10:30 | 50.05011 | 8.61305 | 2106 ft | 181 kts | 79° |
| 2026-05-08 10:30 | 50.05061 | 8.63324 | 2632 ft | 195 kts | 97° |
| 2026-05-08 10:30 | 50.04589 | 8.65370 | 3168 ft | 208 kts | 115° |
| 2026-05-08 10:31 | 50.03980 | 8.67462 | 3663 ft | 219 kts | 109° |
| 2026-05-08 10:31 | 50.03365 | 8.69736 | 4084 ft | 236 kts | 117° |
| 2026-05-08 10:31 | 50.02503 | 8.71935 | 4850 ft | 240 kts | 123° |
| 2026-05-08 10:31 | 50.01422 | 8.74024 | 5277 ft | 259 kts | 136° |
| 2026-05-08 10:32 | 49.99883 | 8.75648 | 5671 ft | 275 kts | 158° |
| 2026-05-08 10:32 | 49.98014 | 8.76338 | 6353 ft | 278 kts | 179° |
| 2026-05-08 10:32 | 49.96081 | 8.75983 | 7085 ft | 277 kts | 194° |
| 2026-05-08 10:32 | 49.94210 | 8.75266 | 7796 ft | 277 kts | 196° |
| 2026-05-08 10:33 | 49.92347 | 8.74463 | 8450 ft | 280 kts | 198° |
| 2026-05-08 10:33 | 49.90471 | 8.73601 | 9123 ft | 282 kts | 198° |
| 2026-05-08 10:33 | 49.88592 | 8.72697 | 9843 ft | 284 kts | 199° |
| 2026-05-08 10:33 | 49.86676 | 8.71746 | 10310 ft | 297 kts | 200° |
| 2026-05-08 10:34 | 49.84642 | 8.70658 | 10411 ft | 320 kts | 201° |
| 2026-05-08 10:34 | 49.82490 | 8.69465 | 10666 ft | 335 kts | 201° |
| 2026-05-08 10:34 | 49.80277 | 8.68246 | 11216 ft | 339 kts | 201° |
| 2026-05-08 10:34 | 49.78050 | 8.67017 | 11849 ft | 341 kts | 200° |
| 2026-05-08 10:35 | 49.75765 | 8.66011 | 12471 ft | 343 kts | 195° |
| 2026-05-08 10:35 | 49.73439 | 8.65139 | 13058 ft | 346 kts | 195° |
| 2026-05-08 10:35 | 49.71095 | 8.64223 | 13625 ft | 349 kts | 196° |
| 2026-05-08 10:35 | 49.68724 | 8.63277 | 14175 ft | 353 kts | 196° |
| 2026-05-08 10:36 | 49.66339 | 8.62319 | 14729 ft | 355 kts | 196° |
| 2026-05-08 10:36 | 49.63940 | 8.61339 | 15273 ft | 358 kts | 196° |
| 2026-05-08 10:36 | 49.61528 | 8.60358 | 15811 ft | 361 kts | 196° |
| 2026-05-08 10:36 | 49.59088 | 8.59365 | 16349 ft | 363 kts | 196° |
| 2026-05-08 10:37 | 49.56640 | 8.58374 | 16876 ft | 366 kts | 197° |
| 2026-05-08 10:37 | 49.54168 | 8.57367 | 17414 ft | 369 kts | 197° |
| 2026-05-08 10:37 | 49.51678 | 8.56356 | 17963 ft | 371 kts | 197° |
| 2026-05-08 10:37 | 49.49168 | 8.55340 | 18495 ft | 375 kts | 197° |
| 2026-05-08 10:38 | 49.46635 | 8.54307 | 18982 ft | 377 kts | 197° |
| 2026-05-08 10:38 | 49.44100 | 8.53235 | 19486 ft | 379 kts | 197° |
| 2026-05-08 10:38 | 49.41544 | 8.52170 | 19988 ft | 382 kts | 197° |
| 2026-05-08 10:38 | 49.38970 | 8.51114 | 20487 ft | 384 kts | 197° |
| 2026-05-08 10:39 | 49.36374 | 8.50064 | 20955 ft | 387 kts | 197° |
| 2026-05-08 10:39 | 49.33767 | 8.49015 | 21401 ft | 389 kts | 197° |
| 2026-05-08 10:39 | 49.31142 | 8.47971 | 21831 ft | 391 kts | 195° |
| 2026-05-08 10:39 | 49.28434 | 8.47361 | 22227 ft | 396 kts | 186° |
| 2026-05-08 10:40 | 49.25672 | 8.47145 | 22650 ft | 399 kts | 185° |
| 2026-05-08 10:40 | 49.22890 | 8.46943 | 23052 ft | 401 kts | 186° |
| 2026-05-08 10:40 | 49.20096 | 8.46657 | 23465 ft | 403 kts | 186° |
| 2026-05-08 10:40 | 49.17291 | 8.46313 | 23852 ft | 405 kts | 187° |
| 2026-05-08 10:41 | 49.14474 | 8.45947 | 24211 ft | 407 kts | 187° |
| 2026-05-08 10:41 | 49.11650 | 8.45576 | 24561 ft | 409 kts | 187° |
| 2026-05-08 10:41 | 49.08804 | 8.45204 | 24909 ft | 411 kts | 187° |
| 2026-05-08 10:41 | 49.05965 | 8.44727 | 25225 ft | 411 kts | 192° |
| 2026-05-08 10:42 | 49.03121 | 8.43848 | 25542 ft | 412 kts | 194° |
| 2026-05-08 10:42 | 49.00323 | 8.42851 | 25851 ft | 414 kts | 195° |
| 2026-05-08 10:42 | 48.97506 | 8.41844 | 26141 ft | 416 kts | 195° |
| 2026-05-08 10:42 | 48.94687 | 8.40853 | 26416 ft | 418 kts | 194° |
| 2026-05-08 10:43 | 48.91840 | 8.39907 | 26686 ft | 419 kts | 193° |
| 2026-05-08 10:43 | 48.88983 | 8.38978 | 26957 ft | 421 kts | 194° |
| 2026-05-08 10:43 | 48.86119 | 8.38018 | 27226 ft | 422 kts | 194° |
| 2026-05-08 10:43 | 48.83245 | 8.37040 | 27481 ft | 424 kts | 194° |
| 2026-05-08 10:44 | 48.80361 | 8.36048 | 27742 ft | 426 kts | 194° |
| 2026-05-08 10:44 | 48.77465 | 8.35046 | 27995 ft | 427 kts | 194° |
| 2026-05-08 10:44 | 48.74569 | 8.33983 | 28241 ft | 429 kts | 195° |
| 2026-05-08 10:44 | 48.71668 | 8.32894 | 28486 ft | 430 kts | 195° |
| 2026-05-08 10:45 | 48.68758 | 8.31808 | 28699 ft | 432 kts | 195° |
| 2026-05-08 10:45 | 48.65834 | 8.30727 | 28913 ft | 433 kts | 195° |
| 2026-05-08 10:45 | 48.62907 | 8.29648 | 29168 ft | 433 kts | 195° |
| 2026-05-08 10:45 | 48.59977 | 8.28572 | 29483 ft | 432 kts | 195° |
| 2026-05-08 10:46 | 48.57059 | 8.27501 | 29801 ft | 431 kts | 195° |
| 2026-05-08 10:46 | 48.54147 | 8.26436 | 30081 ft | 431 kts | 195° |
| 2026-05-08 10:46 | 48.51236 | 8.25371 | 30327 ft | 430 kts | 194° |
| 2026-05-08 10:46 | 48.48260 | 8.24883 | 30497 ft | 434 kts | 179° |
| 2026-05-08 10:47 | 48.45264 | 8.25431 | 30720 ft | 434 kts | 172° |
| 2026-05-08 10:47 | 48.43283 | 8.25910 | 30883 ft | 434 kts | 172° |
| 2026-05-08 10:47 | 48.40303 | 8.26643 | 31093 ft | 434 kts | 172° |
| 2026-05-08 10:47 | 48.37322 | 8.27372 | 31320 ft | 434 kts | 172° |
| 2026-05-08 10:48 | 48.34344 | 8.28087 | 31522 ft | 434 kts | 172° |
| 2026-05-08 10:48 | 48.31370 | 8.28796 | 31735 ft | 434 kts | 172° |
| 2026-05-08 10:48 | 48.28385 | 8.29500 | 31963 ft | 433 kts | 173° |
| 2026-05-08 10:48 | 48.25409 | 8.30195 | 32196 ft | 433 kts | 172° |
| 2026-05-08 10:49 | 48.22436 | 8.30898 | 32402 ft | 433 kts | 172° |
| 2026-05-08 10:49 | 48.19463 | 8.31604 | 32619 ft | 432 kts | 172° |
| 2026-05-08 10:49 | 48.16490 | 8.32315 | 32810 ft | 432 kts | 173° |
| 2026-05-08 10:49 | 48.13485 | 8.33037 | 33158 ft | 430 kts | 172° |
| 2026-05-08 10:50 | 48.10513 | 8.33765 | 33144 ft | 436 kts | 172° |
| 2026-05-08 10:50 | 48.04434 | 8.35251 | 33037 ft | 447 kts | 172° |
| 2026-05-08 10:51 | 47.98274 | 8.36752 | 33056 ft | 449 kts | 172° |
| 2026-05-08 10:51 | 47.92105 | 8.38246 | 33048 ft | 450 kts | 173° |
| 2026-05-08 10:52 | 47.90062 | 8.38740 | 33049 ft | 449 kts | 173° |
| 2026-05-08 10:52 | 47.84382 | 8.40112 | 33053 ft | 450 kts | 173° |
| 2026-05-08 10:53 | 47.78214 | 8.41600 | 33051 ft | 450 kts | 173° |
| 2026-05-08 10:53 | 47.72040 | 8.43084 | 33056 ft | 450 kts | 173° |
| 2026-05-08 10:54 | 47.65850 | 8.44456 | 33074 ft | 449 kts | 176° |
| 2026-05-08 10:54 | 47.59622 | 8.45277 | 33068 ft | 449 kts | 177° |
| 2026-05-08 10:55 | 47.53399 | 8.46158 | 33075 ft | 450 kts | 176° |
| 2026-05-08 10:55 | 47.47833 | 8.46987 | 33077 ft | 450 kts | 176° |
| 2026-05-08 10:56 | 47.41602 | 8.47918 | 33077 ft | 450 kts | 176° |
| 2026-05-08 10:56 | 47.35367 | 8.48848 | 33075 ft | 450 kts | 176° |
| 2026-05-08 10:57 | 47.29091 | 8.49779 | 33078 ft | 450 kts | 176° |
| 2026-05-08 10:57 | 47.19780 | 8.51115 | 33048 ft | 451 kts | 177° |
| 2026-05-08 10:58 | 47.13535 | 8.51977 | 33054 ft | 451 kts | 177° |
| 2026-05-08 10:58 | 47.07288 | 8.52842 | 33043 ft | 451 kts | 177° |
| 2026-05-08 10:59 | 47.01038 | 8.53714 | 33050 ft | 451 kts | 177° |
| 2026-05-08 10:59 | 46.94790 | 8.54621 | 33052 ft | 451 kts | 177° |
| 2026-05-08 11:00 | 46.88544 | 8.55519 | 33040 ft | 450 kts | 177° |
| 2026-05-08 11:00 | 46.82308 | 8.56412 | 33044 ft | 450 kts | 177° |
| 2026-05-08 11:01 | 46.76063 | 8.57308 | 33053 ft | 452 kts | 177° |
| 2026-05-08 11:01 | 46.69812 | 8.58198 | 33049 ft | 452 kts | 177° |
| 2026-05-08 11:02 | 46.60424 | 8.59532 | 33064 ft | 452 kts | 177° |
| 2026-05-08 11:03 | 46.54128 | 8.60422 | 33056 ft | 452 kts | 178° |
| 2026-05-08 11:03 | 46.47869 | 8.61306 | 33058 ft | 451 kts | 178° |
| 2026-05-08 11:04 | 46.41616 | 8.62187 | 33086 ft | 452 kts | 178° |
| 2026-05-08 11:04 | 46.35360 | 8.63069 | 33056 ft | 450 kts | 178° |
| 2026-05-08 11:05 | 46.29115 | 8.63949 | 33068 ft | 452 kts | 178° |
| 2026-05-08 11:05 | 46.22951 | 8.64810 | 33072 ft | 450 kts | 178° |
| 2026-05-08 11:06 | 46.16708 | 8.65683 | 33078 ft | 450 kts | 178° |
| 2026-05-08 11:06 | 46.10670 | 8.66816 | 33076 ft | 457 kts | 167° |
| 2026-05-08 11:06 | 46.07718 | 8.68609 | 33095 ft | 463 kts | 156° |
| 2026-05-08 11:07 | 46.04879 | 8.70797 | 33092 ft | 464 kts | 155° |
| 2026-05-08 11:07 | 45.99238 | 8.75288 | 33081 ft | 463 kts | 155° |
| 2026-05-08 11:08 | 45.94186 | 8.79239 | 33076 ft | 462 kts | 155° |
| 2026-05-08 11:08 | 45.88523 | 8.83636 | 33067 ft | 462 kts | 156° |
| 2026-05-08 11:09 | 45.82861 | 8.88013 | 33077 ft | 462 kts | 156° |
| 2026-05-08 11:09 | 45.77208 | 8.92383 | 33075 ft | 462 kts | 156° |
| 2026-05-08 11:10 | 45.71557 | 8.96736 | 33075 ft | 461 kts | 156° |
| 2026-05-08 11:10 | 45.65915 | 9.01110 | 33073 ft | 463 kts | 153° |
| 2026-05-08 11:10 | 45.63364 | 9.03973 | 33080 ft | 471 kts | 139° |
| 2026-05-08 11:11 | 45.61109 | 9.07374 | 33098 ft | 473 kts | 136° |
| 2026-05-08 11:11 | 45.56724 | 9.14399 | 33071 ft | 473 kts | 136° |
| 2026-05-08 11:12 | 45.52315 | 9.21366 | 33066 ft | 473 kts | 136° |
| 2026-05-08 11:12 | 45.47885 | 9.28296 | 33082 ft | 473 kts | 137° |
| 2026-05-08 11:13 | 45.43451 | 9.35214 | 33074 ft | 473 kts | 137° |
| 2026-05-08 11:13 | 45.39007 | 9.42131 | 33074 ft | 473 kts | 137° |
| 2026-05-08 11:14 | 45.34568 | 9.49024 | 33071 ft | 473 kts | 137° |
| 2026-05-08 11:14 | 45.30122 | 9.55911 | 33070 ft | 473 kts | 137° |
| 2026-05-08 11:15 | 45.25672 | 9.62787 | 33055 ft | 472 kts | 138° |
| 2026-05-08 11:15 | 45.21225 | 9.69641 | 33063 ft | 472 kts | 138° |
| 2026-05-08 11:16 | 45.16772 | 9.76493 | 33060 ft | 472 kts | 138° |
| 2026-05-08 11:16 | 45.12332 | 9.83340 | 33060 ft | 472 kts | 138° |
| 2026-05-08 11:17 | 45.07892 | 9.90170 | 33058 ft | 471 kts | 138° |
| 2026-05-08 11:17 | 45.03448 | 9.96985 | 33058 ft | 471 kts | 139° |
| 2026-05-08 11:18 | 44.99008 | 10.03777 | 33061 ft | 470 kts | 139° |
| 2026-05-08 11:18 | 44.94561 | 10.10563 | 33076 ft | 470 kts | 139° |
| 2026-05-08 11:19 | 44.90118 | 10.17326 | 33077 ft | 469 kts | 139° |
| 2026-05-08 11:19 | 44.85597 | 10.23915 | 33094 ft | 461 kts | 148° |
| 2026-05-08 11:19 | 44.82902 | 10.26224 | 33081 ft | 447 kts | 165° |
| 2026-05-08 11:20 | 44.79947 | 10.27242 | 33093 ft | 431 kts | 182° |
| 2026-05-08 11:20 | 44.77011 | 10.27014 | 33113 ft | 419 kts | 197° |
| 2026-05-08 11:20 | 44.74192 | 10.26037 | 33080 ft | 418 kts | 200° |
| 2026-05-08 11:21 | 44.68612 | 10.23940 | 32789 ft | 410 kts | 200° |
| 2026-05-08 11:21 | 44.65914 | 10.22898 | 32596 ft | 395 kts | 201° |
| 2026-05-08 11:21 | 44.63265 | 10.21869 | 32041 ft | 398 kts | 201° |
| 2026-05-08 11:21 | 44.60587 | 10.20800 | 31522 ft | 400 kts | 201° |
| 2026-05-08 11:22 | 44.57910 | 10.19754 | 30976 ft | 401 kts | 200° |
| 2026-05-08 11:22 | 44.55214 | 10.18738 | 30442 ft | 403 kts | 200° |
| 2026-05-08 11:22 | 44.52501 | 10.17753 | 29913 ft | 402 kts | 199° |
| 2026-05-08 11:22 | 44.49786 | 10.16802 | 29350 ft | 405 kts | 199° |
| 2026-05-08 11:23 | 44.47039 | 10.15846 | 28807 ft | 408 kts | 199° |
| 2026-05-08 11:23 | 44.44282 | 10.14878 | 28313 ft | 406 kts | 199° |
| 2026-05-08 11:23 | 44.41550 | 10.13899 | 27732 ft | 403 kts | 199° |
| 2026-05-08 11:23 | 44.38846 | 10.12933 | 27164 ft | 400 kts | 199° |
| 2026-05-08 11:24 | 44.37031 | 10.12285 | 26837 ft | 397 kts | 199° |
| 2026-05-08 11:24 | 44.34361 | 10.11333 | 26252 ft | 397 kts | 199° |
| 2026-05-08 11:24 | 44.31698 | 10.10382 | 25748 ft | 394 kts | 199° |
| 2026-05-08 11:24 | 44.29043 | 10.09435 | 25216 ft | 391 kts | 199° |
| 2026-05-08 11:25 | 44.26409 | 10.08500 | 24647 ft | 391 kts | 198° |
| 2026-05-08 11:25 | 44.23771 | 10.07637 | 24180 ft | 391 kts | 193° |
| 2026-05-08 11:25 | 44.21028 | 10.07685 | 23644 ft | 400 kts | 174° |
| 2026-05-08 11:25 | 44.18308 | 10.08547 | 23042 ft | 400 kts | 171° |
| 2026-05-08 11:26 | 44.15626 | 10.09509 | 22565 ft | 397 kts | 170° |
| 2026-05-08 11:26 | 44.12959 | 10.10485 | 22023 ft | 395 kts | 169° |
| 2026-05-08 11:26 | 44.10311 | 10.11442 | 21509 ft | 393 kts | 170° |
| 2026-05-08 11:26 | 44.07665 | 10.12371 | 20985 ft | 390 kts | 170° |
| 2026-05-08 11:27 | 44.05039 | 10.13292 | 20460 ft | 388 kts | 169° |
| 2026-05-08 11:27 | 44.02436 | 10.14239 | 19953 ft | 386 kts | 168° |
| 2026-05-08 11:27 | 43.99851 | 10.15195 | 19438 ft | 383 kts | 168° |
| 2026-05-08 11:27 | 43.97290 | 10.16138 | 18938 ft | 380 kts | 168° |
| 2026-05-08 11:28 | 43.94739 | 10.17074 | 18438 ft | 378 kts | 168° |
| 2026-05-08 11:28 | 43.92172 | 10.17611 | 17891 ft | 370 kts | 185° |
| 2026-05-08 11:28 | 43.89712 | 10.16848 | 17464 ft | 361 kts | 205° |
| 2026-05-08 11:28 | 43.87653 | 10.14937 | 16975 ft | 356 kts | 226° |
| 2026-05-08 11:29 | 43.85964 | 10.12437 | 16501 ft | 355 kts | 228° |
| 2026-05-08 11:29 | 43.84274 | 10.09951 | 16024 ft | 352 kts | 229° |
| 2026-05-08 11:29 | 43.82835 | 10.07238 | 15576 ft | 349 kts | 237° |
| 2026-05-08 11:29 | 43.81534 | 10.04396 | 15085 ft | 348 kts | 239° |
| 2026-05-08 11:30 | 43.80274 | 10.01570 | 14642 ft | 342 kts | 239° |
| 2026-05-08 11:30 | 43.78951 | 9.98894 | 14179 ft | 333 kts | 228° |
| 2026-05-08 11:30 | 43.77215 | 9.96832 | 13777 ft | 325 kts | 219° |
| 2026-05-08 11:30 | 43.75403 | 9.94994 | 13319 ft | 318 kts | 217° |
| 2026-05-08 11:31 | 43.73627 | 9.93231 | 12910 ft | 310 kts | 217° |
| 2026-05-08 11:31 | 43.71901 | 9.91497 | 12499 ft | 304 kts | 218° |
| 2026-05-08 11:31 | 43.70210 | 9.89790 | 12102 ft | 298 kts | 217° |
| 2026-05-08 11:31 | 43.68555 | 9.88111 | 11700 ft | 293 kts | 217° |
| 2026-05-08 11:32 | 43.66729 | 9.86923 | 11247 ft | 293 kts | 191° |
| 2026-05-08 11:32 | 43.64729 | 9.87180 | 10928 ft | 290 kts | 159° |
| 2026-05-08 11:32 | 43.63115 | 9.88780 | 10640 ft | 286 kts | 135° |
| 2026-05-08 11:32 | 43.61893 | 9.90944 | 10370 ft | 280 kts | 118° |
| 2026-05-08 11:33 | 43.61475 | 9.93479 | 10107 ft | 276 kts | 86° |
| 2026-05-08 11:33 | 43.61921 | 9.96002 | 9910 ft | 267 kts | 70° |
| 2026-05-08 11:33 | 43.62584 | 9.98372 | 9649 ft | 263 kts | 68° |
| 2026-05-08 11:33 | 43.63268 | 10.00694 | 9376 ft | 260 kts | 68° |
| 2026-05-08 11:34 | 43.63763 | 10.03103 | 9085 ft | 257 kts | 86° |
| 2026-05-08 11:34 | 43.63745 | 10.05558 | 8862 ft | 255 kts | 94° |
| 2026-05-08 11:34 | 43.63595 | 10.07995 | 8596 ft | 256 kts | 95° |
| 2026-05-08 11:34 | 43.63446 | 10.10449 | 8335 ft | 256 kts | 95° |
| 2026-05-08 11:35 | 43.63322 | 10.12896 | 8081 ft | 255 kts | 93° |
| 2026-05-08 11:35 | 43.63227 | 10.15327 | 7831 ft | 254 kts | 93° |
| 2026-05-08 11:35 | 43.63137 | 10.17757 | 7578 ft | 253 kts | 93° |
| 2026-05-08 11:35 | 43.63043 | 10.20170 | 7326 ft | 251 kts | 93° |
| 2026-05-08 11:36 | 43.62949 | 10.22569 | 7080 ft | 250 kts | 93° |
| 2026-05-08 11:36 | 43.62856 | 10.24955 | 6836 ft | 249 kts | 93° |
| 2026-05-08 11:36 | 43.62764 | 10.27335 | 6595 ft | 247 kts | 93° |
| 2026-05-08 11:36 | 43.62672 | 10.29697 | 6357 ft | 246 kts | 92° |
| 2026-05-08 11:37 | 43.62582 | 10.32055 | 6088 ft | 246 kts | 92° |
| 2026-05-08 11:37 | 43.62491 | 10.34403 | 5820 ft | 244 kts | 92° |
| 2026-05-08 11:37 | 43.62400 | 10.36729 | 5573 ft | 241 kts | 92° |
| 2026-05-08 11:37 | 43.62307 | 10.39025 | 5315 ft | 239 kts | 92° |
| 2026-05-08 11:38 | 43.62215 | 10.41308 | 5066 ft | 237 kts | 92° |
| 2026-05-08 11:38 | 43.62132 | 10.43542 | 4993 ft | 229 kts | 92° |
| 2026-05-08 11:38 | 43.62051 | 10.45732 | 5004 ft | 231 kts | 92° |
| 2026-05-08 11:38 | 43.62159 | 10.47956 | 5010 ft | 234 kts | 72° |
| 2026-05-08 11:39 | 43.63026 | 10.49813 | 5023 ft | 234 kts | 39° |
| 2026-05-08 11:39 | 43.64493 | 10.50745 | 5047 ft | 235 kts | 13° |
| 2026-05-08 11:39 | 43.66100 | 10.51182 | 5064 ft | 236 kts | 10° |
| 2026-05-08 11:39 | 43.67728 | 10.51560 | 4974 ft | 235 kts | 10° |
| 2026-05-08 11:40 | 43.69329 | 10.51942 | 4987 ft | 233 kts | 10° |
| 2026-05-08 11:40 | 43.70930 | 10.52341 | 4994 ft | 234 kts | 10° |
| 2026-05-08 11:40 | 43.72535 | 10.52752 | 4998 ft | 235 kts | 11° |
| 2026-05-08 11:40 | 43.74111 | 10.53163 | 4986 ft | 227 kts | 11° |
| 2026-05-08 11:41 | 43.75649 | 10.53561 | 4968 ft | 224 kts | 10° |
| 2026-05-08 11:41 | 43.77180 | 10.53948 | 4958 ft | 224 kts | 10° |
| 2026-05-08 11:41 | 43.78716 | 10.54341 | 4871 ft | 227 kts | 10° |
| 2026-05-08 11:41 | 43.80364 | 10.54733 | 4074 ft | 245 kts | 7° |
| 2026-05-08 11:42 | 43.82047 | 10.54442 | 3442 ft | 246 kts | 334° |
| 2026-05-08 11:42 | 43.83229 | 10.52922 | 3426 ft | 222 kts | 306° |
| 2026-05-08 11:42 | 43.84018 | 10.51196 | 3398 ft | 202 kts | 301° |
| 2026-05-08 11:42 | 43.84516 | 10.49487 | 3402 ft | 184 kts | 279° |
| 2026-05-08 11:43 | 43.84500 | 10.47737 | 3425 ft | 185 kts | 258° |
| 2026-05-08 11:43 | 43.84008 | 10.46080 | 3368 ft | 190 kts | 235° |
| 2026-05-08 11:43 | 43.83014 | 10.44882 | 3088 ft | 192 kts | 205° |
| 2026-05-08 11:43 | 43.81734 | 10.44390 | 2772 ft | 191 kts | 190° |
| 2026-05-08 11:44 | 43.80421 | 10.44126 | 2498 ft | 189 kts | 186° |
| 2026-05-08 11:44 | 43.79139 | 10.43890 | 2289 ft | 184 kts | 188° |
| 2026-05-08 11:44 | 43.77872 | 10.43557 | 2018 ft | 187 kts | 192° |
| 2026-05-08 11:44 | 43.76643 | 10.43293 | 2118 ft | 156 kts | 178° |
| 2026-05-08 11:45 | 43.75652 | 10.43353 | 2172 ft | 150 kts | 175° |
| 2026-05-08 11:45 | 43.74567 | 10.43477 | 1884 ft | 160 kts | 174° |
| 2026-05-08 11:45 | 43.73437 | 10.43439 | 1502 ft | 164 kts | 186° |
| 2026-05-08 11:45 | 43.72340 | 10.43118 | 1181 ft | 160 kts | 198° |
| 2026-05-08 11:46 | 43.71342 | 10.42505 | 831 ft | 156 kts | 212° |
| 2026-05-08 11:46 | 43.70471 | 10.41648 | 514 ft | 152 kts | 221° |
| 2026-05-08 11:46 | 43.69657 | 10.40741 | 221 ft | 147 kts | 219° |
| 2026-05-08 11:46 | 43.68857 | 10.39936 | 17 ft | 133 kts | 220° |
| 2026-05-08 11:47 | 43.68202 | 10.39239 | 7 ft | 103 kts | 216° |
| 2026-05-08 11:47 | 43.67764 | 10.38791 | 8 ft | 45 kts | 220° |
| 2026-05-08 11:47 | 43.67610 | 10.38624 | 11 ft | 21 kts | 218° |
| 2026-05-08 11:47 | 43.67554 | 10.38498 | 8 ft | 15 kts | 293° |
| 2026-05-08 11:48 | 43.67616 | 10.38376 | 7 ft | 17 kts | 307° |
| 2026-05-08 11:48 | 43.67693 | 10.38387 | 9 ft | 13 kts | 41° |
| 2026-05-08 11:48 | 43.67770 | 10.38470 | 8 ft | 15 kts | 37° |
| 2026-05-08 11:48 | 43.67861 | 10.38563 | 7 ft | 18 kts | 36° |
| 2026-05-08 11:49 | 43.67973 | 10.38674 | 8 ft | 23 kts | 38° |
| 2026-05-08 11:49 | 43.68117 | 10.38820 | 5 ft | 27 kts | 35° |
| 2026-05-08 11:49 | 43.68270 | 10.38979 | 5 ft | 28 kts | 38° |
| 2026-05-08 11:49 | 43.68428 | 10.39142 | 7 ft | 29 kts | 35° |
| 2026-05-08 11:50 | 43.68542 | 10.39265 | 8 ft | 20 kts | 38° |
| 2026-05-08 11:50 | 43.68660 | 10.39386 | 7 ft | 22 kts | 36° |
| 2026-05-08 11:50 | 43.68790 | 10.39520 | 7 ft | 24 kts | 35° |
| 2026-05-08 11:50 | 43.68932 | 10.39663 | 6 ft | 26 kts | 35° |
| 2026-05-08 11:51 | 43.69068 | 10.39791 | 9 ft | 20 kts | 35° |
| 2026-05-08 11:51 | 43.69182 | 10.39900 | 9 ft | 18 kts | 34° |
| 2026-05-08 11:51 | 43.69296 | 10.39906 | 10 ft | 17 kts | 353° |
| 2026-05-08 11:51 | 43.69397 | 10.39890 | 10 ft | 15 kts | 353° |
| 2026-05-08 11:52 | 43.69483 | 10.39839 | 10 ft | 13 kts | 281° |
| 2026-05-08 11:52 | 43.69526 | 10.39775 | 10 ft | 10 kts | 358° |
| 2026-05-08 11:52 | 43.69575 | 10.39784 | 10 ft | 5 kts | 8° |
| 2026-05-08 11:52 | 43.69594 | 10.39771 | 11 ft | 1 kts | 310° |
| 2026-05-08 11:53 | 43.69596 | 10.39760 | 11 ft | 2 kts | 286° |
| 2026-05-08 11:53 | 43.69599 | 10.39733 | 10 ft | 4 kts | 278° |
| 2026-05-08 11:53 | 43.69603 | 10.39708 | 10 ft | 0 kts | 297° |
| 2026-05-08 11:53 | 43.69606 | 10.39705 | 10 ft | 2 kts | 313° |
| 2026-05-08 11:54 | 43.69612 | 10.39698 | 10 ft | 0 kts | 319° |